Pagrindinis puslapis
METAR-TAF:

METAR-TAF

Oro uostai :

Førde, Norvegija

platuma: 61-27N, ilguma: 005-52E, Aukštis: 150 m

Dabartinis oras

Ataskaita buvo paskelbta 1 valandą ir 4 minutes, ne 14:20 UTC
Vėjas 1 kt nuo kintamojo kryptimis
Temperatūra -6°C
Drėgmė 79%
Slėgis 1018 hPa
Matomumas 10 km arba daugiau
Su prošvaistėmis ne aukštis 4400 ft

METAR: ENBL 061420Z VRB01KT 9999 BKN044 M06/M09 Q1018

Laikas: 16:24 (15:24 UTC)

Prognozė

Ataskaita buvo paskelbta 1 valandą ir 24 minutes, ne 14:00 UTC
Prognozė galioja nuo 06 metu 15 UTC su 06 metu 23 UTC
Vėjas 3 kt nuo kintamojo kryptimis
Matomumas 10 km arba daugiau
Išsisklaidę debesys ne aukštis 3000 ft
Tikimybė 30% :
Laikinai
nuo 06 metu 15 UTC su 06 metu 23 UTC
Matomumas: 0800 m
ne aukštis 700 ft
sniegas
Laikinai
nuo 06 metu 15 UTC su 06 metu 23 UTC
Su prošvaistėmis ne aukštis 1200 ft
Išsisklaidę debesys ne aukštis 2000 ft, Liūtiniai kamuoliniai debesys.

TAF: ENBL 061400Z 0615/0623 VRB03KT 9999 SCT030 PROB30 TEMPO 0615/0623 0800 SHSN VV007 TEMPO 0615/0623 BKN012 SCT020CB

Orai ataskaitas ir orų prognozės (METAR, TAF).

turimą stotys yra geltonos ir raudonos taškus žemėlapyje.

Perkelti pele per norėdami pamatyti stoties vardą.

Tada spustelėkite, norėdami matyti oro stebėjimo ir prognozės.

Norėdami pakeisti žemėlapį: spustelėkite ant žalios mygtukų su juodo kryžiaus žemyn,; žalią mygtuką su brūkšneliu, jei norite nutolinti; arba žalių rodyklių gretimoms žemėlapius.


METAR-TAF: